createdAt,value
2023-04-23T00:02:17.068Z,100447.44
2023-04-23T00:04:51.938Z,100450.97
2023-04-23T00:07:22.311Z,100443.09
2023-04-23T00:09:52.811Z,100437.84
2023-04-23T00:12:21.080Z,100428.28
2023-04-23T00:14:48.400Z,100425.84
2023-04-23T00:17:15.363Z,100425.75
2023-04-23T00:19:42.346Z,100420.56
2023-04-23T00:22:09.330Z,100412.69
2023-04-23T00:24:38.934Z,100407.44
2023-04-23T00:27:06.577Z,100405.78
2023-04-23T00:29:33.539Z,100406.66
2023-04-23T00:32:00.746Z,100406.69
2023-04-23T00:34:27.729Z,100408.59
2023-04-23T00:36:55.153Z,100399.94
2023-04-23T00:39:22.477Z,100402.59
2023-04-23T00:41:50.516Z,100395.66
2023-04-23T00:44:17.648Z,100394.91
2023-04-23T00:46:45.177Z,100394.06
2023-04-23T00:49:13.894Z,100393.28
2023-04-23T00:51:40.819Z,100383.75
2023-04-23T00:54:07.814Z,100391.72
2023-04-23T00:56:35.214Z,100382.09
2023-04-23T00:59:03.359Z,100380.41
2023-04-23T01:01:30.389Z,100376.13
2023-04-23T01:03:57.984Z,100376.22
2023-04-23T01:06:25.233Z,100378.09
2023-04-23T01:08:52.195Z,100378.97
2023-04-23T01:11:19.665Z,100378.19
2023-04-23T01:13:46.569Z,100374.72
2023-04-23T01:16:13.480Z,100368.66
2023-04-23T01:18:41.103Z,100362.59
2023-04-23T01:21:11.650Z,100372.22
2023-04-23T01:23:39.004Z,100365.34
2023-04-23T01:26:06.279Z,100372.22
2023-04-23T01:28:33.878Z,100369.59
2023-04-23T01:31:01.590Z,100366.94
2023-04-23T01:33:32.010Z,100373.03
2023-04-23T01:36:00.204Z,100366.91
2023-04-23T01:38:30.892Z,100365.13
2023-04-23T01:40:57.861Z,100368.63
2023-04-23T01:43:25.471Z,100367.72
2023-04-23T01:45:53.227Z,100366.00
2023-04-23T01:48:20.809Z,100362.44
2023-04-23T01:50:48.504Z,100361.59
2023-04-23T01:53:15.584Z,100353.78
2023-04-23T01:55:46.118Z,100354.63
2023-04-23T01:58:13.427Z,100346.78
2023-04-23T02:00:40.481Z,100347.59
2023-04-23T02:03:07.523Z,100335.44
2023-04-23T02:05:36.048Z,100339.69
2023-04-23T02:08:03.618Z,100342.28
2023-04-23T02:10:31.745Z,100335.25
2023-04-23T02:12:59.344Z,100335.13
2023-04-23T02:15:26.276Z,100332.47
2023-04-23T02:17:54.002Z,100340.31
2023-04-23T02:20:21.823Z,100341.22
2023-04-23T02:22:50.918Z,100338.47
2023-04-23T02:25:18.876Z,100333.31
2023-04-23T02:27:45.804Z,100338.41
2023-04-23T02:30:13.032Z,100330.50
2023-04-23T02:32:40.269Z,100333.94
2023-04-23T02:35:09.348Z,100334.78
2023-04-23T02:37:37.311Z,100332.13
2023-04-23T02:40:08.124Z,100332.94
2023-04-23T02:42:35.111Z,100329.38
2023-04-23T02:45:02.004Z,100331.06
2023-04-23T02:47:30.173Z,100337.06
2023-04-23T02:49:57.680Z,100330.94
2023-04-23T02:52:24.731Z,100343.00
2023-04-23T02:54:51.827Z,100329.84
2023-04-23T02:57:19.190Z,100329.84
2023-04-23T02:59:46.338Z,100340.22
2023-04-23T03:02:14.038Z,100334.78
2023-04-23T03:04:41.429Z,100334.75
2023-04-23T03:07:09.399Z,100337.28
2023-04-23T03:09:36.261Z,100327.66
2023-04-23T03:12:03.154Z,100330.97
2023-04-23T03:14:30.188Z,100331.78
2023-04-23T03:16:57.410Z,100329.94
2023-04-23T03:19:24.424Z,100338.66
2023-04-23T03:21:51.457Z,100343.88
2023-04-23T03:24:18.626Z,100340.31
2023-04-23T03:26:45.674Z,100342.03
2023-04-23T03:29:12.620Z,100336.00
2023-04-23T03:31:39.707Z,100342.97
2023-04-23T03:34:09.154Z,100339.50
2023-04-23T03:36:37.660Z,100336.88
2023-04-23T03:39:04.594Z,100335.25
2023-04-23T03:41:44.200Z,100315.09
2023-04-23T03:44:12.941Z,100336.16
2023-04-23T03:46:42.780Z,100336.88
2023-04-23T03:49:10.316Z,100319.47
2023-04-23T03:51:37.472Z,100341.28
2023-04-23T03:54:04.601Z,100328.09
2023-04-23T03:56:41.438Z,100338.63
2023-04-23T03:59:16.015Z,100337.72
2023-04-23T04:01:44.489Z,100341.19
2023-04-23T04:04:11.703Z,100340.34
2023-04-23T04:06:38.864Z,100333.31
2023-04-23T04:09:06.161Z,100329.78
2023-04-23T04:11:33.102Z,100322.75
2023-04-23T04:14:00.005Z,100328.88
2023-04-23T04:16:28.019Z,100326.31
2023-04-23T04:18:56.621Z,100327.97
2023-04-23T04:21:23.672Z,100323.56
2023-04-23T04:23:51.124Z,100318.25
2023-04-23T04:26:18.703Z,100327.88
2023-04-23T04:28:45.629Z,100320.81
2023-04-23T04:31:15.976Z,100327.88
2023-04-23T04:33:43.328Z,100327.75
2023-04-23T04:36:10.236Z,100325.13
2023-04-23T04:38:39.723Z,100332.94
2023-04-23T04:41:07.696Z,100332.94
2023-04-23T04:43:34.877Z,100332.81
2023-04-23T04:46:01.948Z,100329.22
2023-04-23T04:48:28.879Z,100333.53
2023-04-23T04:50:55.770Z,100329.94
2023-04-23T04:53:22.778Z,100335.13
2023-04-23T04:55:49.862Z,100329.75
2023-04-23T04:58:16.931Z,100334.13
2023-04-23T05:00:44.529Z,100333.19
2023-04-23T05:03:14.316Z,100333.19
2023-04-23T05:05:41.485Z,100341.91
2023-04-23T05:08:08.746Z,100331.38
2023-04-23T05:10:35.644Z,100329.56
2023-04-23T05:13:02.544Z,100336.50
2023-04-23T05:15:29.517Z,100323.59
2023-04-23T05:17:56.593Z,100333.88
2023-04-23T05:20:23.556Z,100330.38
2023-04-23T05:22:50.476Z,100333.03
2023-04-23T05:25:17.367Z,100336.50
2023-04-23T05:27:44.277Z,100335.63
2023-04-23T05:30:11.556Z,100319.03
2023-04-23T05:32:39.305Z,100331.19
2023-04-23T05:35:07.178Z,100339.88
2023-04-23T05:37:34.141Z,100343.38
2023-04-23T05:40:02.560Z,100339.09
2023-04-23T05:42:29.533Z,100334.59
2023-04-23T05:44:56.437Z,100342.47
2023-04-23T05:47:23.375Z,100344.13
2023-04-23T05:49:50.267Z,100348.47
2023-04-23T05:52:17.755Z,100344.91
2023-04-23T05:54:44.891Z,100342.22
2023-04-23T05:57:12.636Z,100349.22
2023-04-23T05:59:39.496Z,100354.44
2023-04-23T06:02:07.504Z,100356.16
2023-04-23T06:04:34.619Z,100351.72
2023-04-23T06:07:01.776Z,100354.34
2023-04-23T06:09:28.677Z,100354.31
2023-04-23T06:11:55.730Z,100356.84
2023-04-23T06:14:22.623Z,100354.31
2023-04-23T06:16:49.545Z,100353.25
2023-04-23T06:19:16.813Z,100353.31
2023-04-23T06:21:43.723Z,100353.25
2023-04-23T06:24:10.634Z,100353.25
2023-04-23T06:26:37.531Z,100349.75
2023-04-23T06:29:12.050Z,100354.09
2023-04-23T06:31:49.974Z,100354.09
2023-04-23T06:34:16.872Z,100348.84
2023-04-23T06:36:43.873Z,100351.44
2023-04-23T06:39:10.733Z,100357.56
2023-04-23T06:41:38.149Z,100358.41
2023-04-23T06:44:21.818Z,100363.69
2023-04-23T06:46:54.421Z,100356.72
2023-04-23T06:49:21.352Z,100366.38
2023-04-23T06:51:48.385Z,100372.53
2023-04-23T06:54:15.276Z,100368.28
2023-04-23T06:56:42.179Z,100381.38
2023-04-23T06:59:09.058Z,100375.28
2023-04-23T07:01:44.628Z,100382.34
2023-04-23T07:04:11.540Z,100384.13
2023-04-23T07:06:38.430Z,100383.25
2023-04-23T07:09:05.913Z,100381.47
2023-04-23T07:11:34.811Z,100374.53
2023-04-23T07:14:01.739Z,100368.56
2023-04-23T07:16:32.179Z,100378.97
2023-04-23T07:19:01.179Z,100369.38
2023-04-23T07:21:28.814Z,100373.78
2023-04-23T07:23:59.845Z,100359.84
2023-04-23T07:26:27.818Z,100360.69
2023-04-23T07:28:54.744Z,100356.31
2023-04-23T07:31:22.266Z,100358.06
2023-04-23T07:33:49.358Z,100344.03
2023-04-23T07:36:16.298Z,100344.91
2023-04-23T07:38:43.277Z,100354.53
2023-04-23T07:41:10.354Z,100349.28
2023-04-23T07:43:37.242Z,100358.78
2023-04-23T07:46:05.061Z,100378.88
2023-04-23T07:48:32.057Z,100379.78
2023-04-23T07:50:59.041Z,100384.09
2023-04-23T07:53:26.175Z,100380.53
2023-04-23T07:55:53.102Z,100379.66
2023-04-23T07:58:20.002Z,100383.88
2023-04-23T08:00:46.931Z,100387.38
2023-04-23T08:03:13.917Z,100391.75
2023-04-23T08:05:41.431Z,100384.69
2023-04-23T08:08:09.048Z,100388.16
2023-04-23T08:10:36.341Z,100387.31
2023-04-23T08:13:03.247Z,100386.38
2023-04-23T08:15:30.373Z,100388.16
2023-04-23T08:17:57.327Z,100390.81
2023-04-23T08:20:24.265Z,100386.38
2023-04-23T08:22:53.561Z,100392.59
2023-04-23T08:25:21.100Z,100382.19
2023-04-23T08:27:48.014Z,100390.00
2023-04-23T08:30:15.089Z,100395.28
2023-04-23T08:32:42.148Z,100397.06
2023-04-23T08:35:09.531Z,100391.88
2023-04-23T08:37:36.538Z,100392.88
2023-04-23T08:40:05.048Z,100405.16
2023-04-23T08:43:02.134Z,100408.00
2023-04-23T08:45:30.872Z,100406.38
2023-04-23T08:48:02.446Z,100414.34
2023-04-23T08:50:30.963Z,100410.94
2023-04-23T08:52:58.464Z,100412.84
2023-04-23T08:55:25.834Z,100418.19
2023-04-23T08:57:53.004Z,100421.69
2023-04-23T09:00:23.200Z,100421.78
2023-04-23T09:02:50.642Z,100427.94
2023-04-23T09:05:17.847Z,100426.19
2023-04-23T09:07:45.253Z,100431.44
2023-04-23T09:10:16.253Z,100426.19
2023-04-23T09:12:44.986Z,100429.66
2023-04-23T09:15:13.818Z,100432.22
2023-04-23T09:17:45.958Z,100438.38
2023-04-23T09:20:14.863Z,100434.91
2023-04-23T09:22:49.326Z,100439.28
2023-04-23T09:25:19.729Z,100445.38
2023-04-23T09:27:48.230Z,100446.22
2023-04-23T09:30:16.404Z,100453.25
2023-04-23T09:32:49.475Z,100454.25
2023-04-23T09:35:20.119Z,100460.44
2023-04-23T09:37:51.068Z,100460.50
2023-04-23T09:40:22.731Z,100457.88
2023-04-23T09:42:53.093Z,100463.22
2023-04-23T09:45:20.734Z,100466.91
2023-04-23T09:47:56.044Z,100463.53
2023-04-23T09:50:40.580Z,100471.41
2023-04-23T09:53:09.659Z,100473.97
2023-04-23T09:55:39.744Z,100464.19
2023-04-23T09:58:15.680Z,100464.81
2023-04-23T10:00:43.054Z,100472.59
2023-04-23T10:03:10.960Z,100472.50
2023-04-23T10:05:59.813Z,100470.75
2023-04-23T10:08:28.777Z,100478.41
2023-04-23T10:11:06.636Z,100480.09
2023-04-23T10:13:37.594Z,100481.00
2023-04-23T10:16:18.620Z,100483.47
2023-04-23T10:18:52.050Z,100491.25
2023-04-23T10:21:20.844Z,100485.00
2023-04-23T10:23:50.418Z,100491.75
2023-04-23T10:26:19.518Z,100485.47
2023-04-23T10:28:49.026Z,100488.75
2023-04-23T10:31:16.584Z,100498.34
2023-04-23T10:33:55.911Z,100491.25
2023-04-23T10:36:25.892Z,100477.28
2023-04-23T10:38:58.817Z,100494.88
2023-04-23T10:41:34.952Z,100486.94
2023-04-23T10:44:03.103Z,100487.69
2023-04-23T10:46:31.841Z,100479.78
2023-04-23T10:49:16.763Z,100471.16
2023-04-23T10:54:20.375Z,100484.97
2023-04-23T10:57:00.165Z,100495.56
2023-04-23T10:59:29.729Z,100500.00
2023-04-23T11:01:59.622Z,100498.34
2023-04-23T11:04:29.930Z,100494.13
2023-04-23T11:07:05.577Z,100500.16
2023-04-23T11:09:44.285Z,100487.00
2023-04-23T11:12:24.789Z,100504.34
2023-04-23T11:14:56.977Z,100508.84
2023-04-23T11:17:32.903Z,100504.50
2023-04-23T11:20:14.962Z,100507.13
2023-04-23T11:22:46.631Z,100508.88
2023-04-23T11:25:22.928Z,100507.09
2023-04-23T11:27:51.705Z,100501.69
2023-04-23T11:30:25.271Z,100495.38
2023-04-23T11:32:54.824Z,100506.59
2023-04-23T11:35:28.529Z,100507.31
2023-04-23T11:37:56.386Z,100499.19
2023-04-23T11:40:24.233Z,100502.47
2023-04-23T11:42:57.437Z,100501.34
2023-04-23T11:45:26.490Z,100516.94
2023-04-23T11:47:56.347Z,100517.69
2023-04-23T11:50:33.602Z,100514.28
2023-04-23T11:53:10.109Z,100517.69
2023-04-23T11:55:38.213Z,100518.53
2023-04-23T11:58:05.786Z,100505.31
2023-04-23T12:00:32.720Z,100512.31
2023-04-23T12:03:01.965Z,100503.50
2023-04-23T12:05:37.770Z,100507.09
2023-04-23T12:08:10.132Z,100515.91
2023-04-23T12:11:06.142Z,100515.91
2023-04-23T12:13:33.786Z,100524.50
2023-04-23T12:16:05.332Z,100512.00
2023-04-23T12:18:42.137Z,100505.44
2023-04-23T12:21:11.309Z,100504.19
2023-04-23T12:23:40.357Z,100507.34
2023-04-23T12:26:15.825Z,100508.84
2023-04-23T12:28:59.403Z,100501.31
2023-04-23T12:31:29.133Z,100510.63
2023-04-23T12:34:08.275Z,100517.34
2023-04-23T12:36:40.813Z,100517.19
2023-04-23T12:39:20.597Z,100524.00
2023-04-23T12:41:49.901Z,100520.41
2023-04-23T12:44:16.775Z,100528.19
2023-04-23T12:46:43.673Z,100522.22
2023-04-23T12:49:10.595Z,100524.91
2023-04-23T12:51:37.705Z,100521.50
2023-04-23T12:54:04.785Z,100529.50
2023-04-23T12:56:31.696Z,100520.53
2023-04-23T12:59:01.816Z,100528.41
2023-04-23T13:01:29.144Z,100530.94
2023-04-23T13:03:56.831Z,100520.25
2023-04-23T13:06:23.990Z,100523.72
2023-04-23T13:08:50.991Z,100526.31
2023-04-23T13:11:17.879Z,100520.00
2023-04-23T13:13:44.809Z,100522.44
2023-04-23T13:16:11.838Z,100517.84
2023-04-23T13:18:38.762Z,100516.75
2023-04-23T13:21:05.937Z,100519.13
2023-04-23T13:23:32.821Z,100525.22
2023-04-23T13:25:59.709Z,100509.38
2023-04-23T13:28:26.934Z,100498.94
2023-04-23T13:30:53.986Z,100500.78
2023-04-23T13:33:21.193Z,100502.78
2023-04-23T13:35:48.163Z,100508.97
2023-04-23T13:38:15.093Z,100486.19
2023-04-23T13:40:41.984Z,100483.66
2023-04-23T13:43:08.884Z,100465.28
2023-04-23T13:45:35.944Z,100461.88
2023-04-23T13:48:02.942Z,100463.78
2023-04-23T13:50:29.874Z,100462.97
2023-04-23T13:52:56.767Z,100466.59
2023-04-23T13:55:23.652Z,100472.00
2023-04-23T13:57:50.519Z,100473.81
2023-04-23T14:00:18.120Z,100477.44
2023-04-23T14:02:45.070Z,100466.91
2023-04-23T14:05:12.144Z,100476.69
2023-04-23T14:07:48.086Z,100470.59
2023-04-23T14:10:15.539Z,100471.50
2023-04-23T14:12:42.430Z,100474.13
2023-04-23T14:15:09.955Z,100471.50
2023-04-23T14:17:39.188Z,100475.06
2023-04-23T14:20:07.672Z,100479.38
2023-04-23T14:22:34.599Z,100471.47
2023-04-23T14:25:10.912Z,100471.56
2023-04-23T14:27:50.477Z,100474.09
2023-04-23T14:30:21.547Z,100481.97
2023-04-23T14:32:50.010Z,100486.31
2023-04-23T14:35:17.480Z,100485.34
2023-04-23T14:37:45.582Z,100481.84
2023-04-23T14:40:15.745Z,100486.91
2023-04-23T14:42:42.826Z,100484.25
2023-04-23T14:45:09.954Z,100486.00
2023-04-23T14:47:36.866Z,100484.22
2023-04-23T14:50:04.234Z,100487.72
2023-04-23T14:52:31.612Z,100490.19
2023-04-23T14:54:58.517Z,100479.50
2023-04-23T14:57:25.411Z,100483.78
2023-04-23T14:59:52.328Z,100477.41
2023-04-23T15:02:19.312Z,100463.16
2023-04-23T15:04:46.414Z,100466.50
2023-04-23T15:07:13.295Z,100466.38
2023-04-23T15:09:40.440Z,100461.09
2023-04-23T15:12:43.756Z,100454.06
2023-04-23T15:15:43.109Z,100447.88
2023-04-23T15:18:14.228Z,100446.88
2023-04-23T15:20:42.166Z,100401.75
2023-04-23T15:23:10.105Z,100445.78
2023-04-23T15:25:37.385Z,100435.25
2023-04-23T15:28:05.585Z,100450.00
2023-04-23T15:30:32.652Z,100433.28
2023-04-23T15:32:59.615Z,100438.38
2023-04-23T15:35:28.031Z,100438.22
2023-04-23T15:37:54.944Z,100440.75
2023-04-23T15:40:21.833Z,100438.06
2023-04-23T15:42:50.043Z,100441.44
2023-04-23T15:45:17.243Z,100435.03
2023-04-23T15:47:44.497Z,100439.28
2023-04-23T15:50:11.821Z,100431.22
2023-04-23T15:52:40.539Z,100428.53
2023-04-23T15:55:08.088Z,100420.72
2023-04-23T15:57:34.977Z,100421.44
2023-04-23T16:00:01.904Z,100418.75
2023-04-23T16:02:39.030Z,100420.50
2023-04-23T16:05:06.196Z,100413.53
2023-04-23T16:07:33.109Z,100417.09
2023-04-23T16:10:00.040Z,100409.22
2023-04-23T16:12:26.918Z,100400.47
2023-04-23T16:14:53.928Z,100397.03
2023-04-23T16:17:20.842Z,100398.91
2023-04-23T16:19:47.976Z,100395.50
2023-04-23T16:22:16.210Z,100392.94
2023-04-23T16:24:43.129Z,100386.00
2023-04-23T16:27:10.957Z,100379.94
2023-04-23T16:29:38.732Z,100377.56
2023-04-23T16:32:07.297Z,100367.22
2023-04-23T16:34:34.492Z,100373.44
2023-04-23T16:37:01.400Z,100376.28
2023-04-23T16:39:28.314Z,100374.59
2023-04-23T16:41:55.194Z,100372.97
2023-04-23T16:44:22.080Z,100369.63
2023-04-23T16:46:48.992Z,100377.44
2023-04-23T16:49:15.966Z,100374.06
2023-04-23T16:51:42.828Z,100366.19
2023-04-23T16:54:09.854Z,100373.13
2023-04-23T16:56:37.332Z,100374.94
2023-04-23T16:59:04.895Z,100369.91
2023-04-23T17:01:31.888Z,100370.88
2023-04-23T17:03:59.070Z,100364.78
2023-04-23T17:06:32.998Z,100353.50
2023-04-23T17:09:03.139Z,100346.53
2023-04-23T17:11:31.027Z,100353.72
2023-04-23T17:13:58.297Z,100346.81
2023-04-23T17:16:26.754Z,100334.66
2023-04-23T17:18:54.937Z,100329.38
2023-04-23T17:21:22.724Z,100330.19
2023-04-23T17:23:49.753Z,100334.59
2023-04-23T17:26:16.702Z,100345.16
2023-04-23T17:28:43.632Z,100350.44
2023-04-23T17:31:11.257Z,100346.09
2023-04-23T17:33:38.742Z,100338.22
2023-04-23T17:36:05.854Z,100337.44
2023-04-23T17:38:32.738Z,100334.97
2023-04-23T17:40:59.981Z,100319.50
2023-04-23T17:43:27.346Z,100335.25
2023-04-23T17:45:54.479Z,100339.78
2023-04-23T17:48:23.001Z,100331.13
2023-04-23T17:50:50.186Z,100322.50
2023-04-23T17:53:17.148Z,100326.28
2023-04-23T17:55:44.030Z,100324.84
2023-04-23T17:58:10.905Z,100332.09
2023-04-23T18:00:43.119Z,100325.38
2023-04-23T18:03:11.657Z,100343.25
2023-04-23T18:05:39.181Z,100337.50
2023-04-23T18:08:07.453Z,100342.88
2023-04-23T18:10:34.386Z,100344.97
2023-04-23T18:13:03.341Z,100348.06
2023-04-23T18:15:32.298Z,100361.31
2023-04-23T18:17:59.715Z,100360.75
2023-04-23T18:20:26.955Z,100365.38
2023-04-23T18:22:56.628Z,100373.47
2023-04-23T18:25:25.245Z,100369.34
2023-04-23T18:27:52.177Z,100370.44
2023-04-23T18:30:23.104Z,100371.63
2023-04-23T18:33:00.807Z,100378.06
2023-04-23T18:35:27.752Z,100379.94
2023-04-23T18:38:02.664Z,100390.75
2023-04-23T18:40:29.663Z,100388.34
2023-04-23T18:42:56.756Z,100394.75
2023-04-23T18:45:23.855Z,100384.44
2023-04-23T18:47:57.692Z,100393.56
2023-04-23T18:50:57.887Z,100388.59
2023-04-23T18:53:24.759Z,100395.88
2023-04-23T18:55:51.643Z,100396.16
2023-04-23T18:58:18.513Z,100397.22
2023-04-23T19:00:45.485Z,100399.94
2023-04-23T19:03:25.334Z,100400.94
2023-04-23T19:05:52.873Z,100399.34
2023-04-23T19:08:19.766Z,100395.97
2023-04-23T19:10:46.728Z,100397.84
2023-04-23T19:13:13.605Z,100395.34
2023-04-23T19:15:40.617Z,100399.00
2023-04-23T19:18:07.564Z,100400.91
2023-04-23T19:20:34.496Z,100400.19
2023-04-23T19:23:01.385Z,100401.22
2023-04-23T19:25:28.271Z,100396.09
2023-04-23T19:27:55.142Z,100391.91
2023-04-23T19:30:22.023Z,100395.47
2023-04-23T19:32:48.986Z,100394.78
2023-04-23T19:35:15.940Z,100395.81
2023-04-23T19:37:42.808Z,100390.69
2023-04-23T19:40:10.723Z,100377.81
2023-04-23T19:42:37.624Z,100377.16
2023-04-23T19:45:04.685Z,100380.63
2023-04-23T19:47:33.106Z,100376.38
2023-04-23T19:50:00.065Z,100377.41
2023-04-23T19:52:27.958Z,100373.09
2023-04-23T19:54:54.866Z,100373.28
2023-04-23T19:57:22.258Z,100366.41
2023-04-23T19:59:49.465Z,100357.03
2023-04-23T20:02:16.863Z,100369.34
2023-04-23T20:04:44.049Z,100361.63
2023-04-23T20:07:11.128Z,100366.13
2023-04-23T20:09:38.130Z,100368.03
2023-04-23T20:12:05.330Z,100360.31
2023-04-23T20:14:32.230Z,100356.03
2023-04-23T20:16:59.318Z,100367.53
2023-04-23T20:19:26.245Z,100374.63
2023-04-23T20:21:53.696Z,100365.19
2023-04-23T20:24:23.210Z,100367.00
2023-04-23T20:26:50.334Z,100375.03
2023-04-23T20:29:17.239Z,100367.25
2023-04-23T20:31:48.732Z,100370.81
2023-04-23T20:34:18.878Z,100362.16
2023-04-23T20:36:48.910Z,100356.19
2023-04-23T20:39:16.778Z,100352.81
2023-04-23T20:41:46.389Z,100343.28
2023-04-23T20:44:13.302Z,100346.03
2023-04-23T20:46:40.508Z,100347.84
2023-04-23T20:49:07.417Z,100345.31
2023-04-23T20:51:34.455Z,100344.53
2023-04-23T20:54:02.222Z,100338.50
2023-04-23T20:56:29.790Z,100337.72
2023-04-23T20:58:59.885Z,100336.91
2023-04-23T21:01:27.283Z,100323.94
2023-04-23T21:03:54.743Z,100323.97
2023-04-23T21:06:22.210Z,100314.47
2023-04-23T21:08:49.334Z,100318.00
2023-04-23T21:11:19.090Z,100313.72
2023-04-23T21:13:46.923Z,100305.09
2023-04-23T21:16:14.220Z,100299.06
2023-04-23T21:18:41.921Z,100297.34
2023-04-23T21:21:08.819Z,100303.53
2023-04-23T21:23:36.259Z,100294.88
2023-04-23T21:26:03.592Z,100278.44
2023-04-23T21:28:31.430Z,100282.78
2023-04-23T21:31:07.719Z,100278.53
2023-04-23T21:33:34.647Z,100276.78
2023-04-23T21:36:01.576Z,100272.50
2023-04-23T21:38:28.518Z,100267.28
2023-04-23T21:40:55.454Z,100267.31
2023-04-23T21:43:24.305Z,100258.66
2023-04-23T21:45:51.402Z,100256.09
2023-04-23T21:48:18.412Z,100259.63
2023-04-23T21:50:45.363Z,100258.75
2023-04-23T21:53:13.082Z,100258.81
2023-04-23T21:55:39.986Z,100248.41
2023-04-23T21:58:17.337Z,100252.78
2023-04-23T22:00:45.773Z,100240.66
2023-04-23T22:03:14.665Z,100231.97
2023-04-23T22:05:49.348Z,100239.88
2023-04-23T22:08:17.204Z,100232.94
2023-04-23T22:10:44.681Z,100243.44
2023-04-23T22:13:14.269Z,100244.34
2023-04-23T22:15:41.326Z,100240.88
2023-04-23T22:18:08.610Z,100240.03
2023-04-23T22:20:37.536Z,100246.16
2023-04-23T22:23:04.470Z,100247.03
2023-04-23T22:25:31.384Z,100239.22
2023-04-23T22:27:58.489Z,100245.34
2023-04-23T22:30:25.409Z,100239.31
2023-04-23T22:32:52.312Z,100240.22
2023-04-23T22:35:19.297Z,100231.56
2023-04-23T22:37:46.219Z,100237.72
2023-04-23T22:40:13.101Z,100231.69
2023-04-23T22:42:39.965Z,100240.41
2023-04-23T22:45:08.334Z,100242.16
2023-04-23T22:47:35.234Z,100252.59
2023-04-23T22:50:02.268Z,100256.16
2023-04-23T22:52:29.140Z,100269.16
2023-04-23T22:54:56.847Z,100268.31
2023-04-23T22:57:24.456Z,100267.44
2023-04-23T22:59:51.355Z,100267.44
2023-04-23T23:02:18.415Z,100264.84
2023-04-23T23:04:45.893Z,100259.69
2023-04-23T23:07:12.976Z,100262.22
2023-04-23T23:09:39.869Z,100266.59
2023-04-23T23:12:06.738Z,100260.50
2023-04-23T23:14:34.005Z,100253.56
2023-04-23T23:17:00.856Z,100258.81
2023-04-23T23:19:27.998Z,100256.22
2023-04-23T23:21:55.032Z,100241.47
2023-04-23T23:24:22.383Z,100243.25
2023-04-23T23:26:50.353Z,100233.63
2023-04-23T23:29:17.247Z,100211.97
2023-04-23T23:31:44.250Z,100217.16
2023-04-23T23:34:11.762Z,100209.31
2023-04-23T23:36:38.709Z,100202.41
2023-04-23T23:39:06.694Z,100199.78
2023-04-23T23:41:33.882Z,100191.13
2023-04-23T23:44:00.833Z,100186.81
2023-04-23T23:46:27.983Z,100187.66
2023-04-23T23:48:55.022Z,100179.84
2023-04-23T23:51:21.916Z,100180.75
2023-04-23T23:53:48.936Z,100175.50
2023-04-23T23:56:15.855Z,100164.22
2023-04-23T23:58:42.761Z,100164.25
